sensor_id;sensor_type;location;lat;lon;timestamp;P1;durP1;ratioP1;P2;durP2;ratioP2
77016;SDS011;65949;53.132;17.930;2023-03-01T00:00:00;103.20;;;36.10;;
77016;SDS011;65949;53.132;17.930;2023-03-01T00:02:26;101.80;;;36.90;;
77016;SDS011;65949;53.132;17.930;2023-03-01T00:04:53;92.80;;;37.70;;
77016;SDS011;65949;53.132;17.930;2023-03-01T00:07:20;94.70;;;36.70;;
77016;SDS011;65949;53.132;17.930;2023-03-01T00:09:46;77.60;;;30.80;;
77016;SDS011;65949;53.132;17.930;2023-03-01T00:12:13;82.80;;;28.00;;
77016;SDS011;65949;53.132;17.930;2023-03-01T00:14:39;79.20;;;28.40;;
77016;SDS011;65949;53.132;17.930;2023-03-01T00:17:06;78.90;;;28.30;;
77016;SDS011;65949;53.132;17.930;2023-03-01T00:19:33;66.80;;;24.20;;
77016;SDS011;65949;53.132;17.930;2023-03-01T00:22:00;68.50;;;24.90;;
77016;SDS011;65949;53.132;17.930;2023-03-01T00:24:26;71.80;;;25.30;;
77016;SDS011;65949;53.132;17.930;2023-03-01T00:26:53;61.60;;;21.80;;
77016;SDS011;65949;53.132;17.930;2023-03-01T00:29:24;61.80;;;21.30;;
77016;SDS011;65949;53.132;17.930;2023-03-01T00:31:51;58.70;;;21.60;;
77016;SDS011;65949;53.132;17.930;2023-03-01T00:34:17;51.10;;;19.90;;
77016;SDS011;65949;53.132;17.930;2023-03-01T00:36:44;68.00;;;23.10;;
77016;SDS011;65949;53.132;17.930;2023-03-01T00:39:12;58.20;;;20.40;;
77016;SDS011;65949;53.132;17.930;2023-03-01T00:41:40;56.90;;;21.30;;
77016;SDS011;65949;53.132;17.930;2023-03-01T00:44:08;58.10;;;21.20;;
77016;SDS011;65949;53.132;17.930;2023-03-01T00:46:35;57.40;;;21.20;;
77016;SDS011;65949;53.132;17.930;2023-03-01T00:49:02;78.10;;;26.20;;
77016;SDS011;65949;53.132;17.930;2023-03-01T00:51:31;79.20;;;27.20;;
77016;SDS011;65949;53.132;17.930;2023-03-01T00:53:59;94.10;;;34.90;;
77016;SDS011;65949;53.132;17.930;2023-03-01T00:56:27;92.20;;;34.80;;
77016;SDS011;65949;53.132;17.930;2023-03-01T00:58:54;70.20;;;26.60;;
77016;SDS011;65949;53.132;17.930;2023-03-01T01:01:22;55.10;;;21.10;;
77016;SDS011;65949;53.132;17.930;2023-03-01T01:03:54;55.10;;;19.00;;
77016;SDS011;65949;53.132;17.930;2023-03-01T01:06:24;53.20;;;20.20;;
77016;SDS011;65949;53.132;17.930;2023-03-01T01:08:55;57.10;;;20.30;;
77016;SDS011;65949;53.132;17.930;2023-03-01T01:11:23;56.70;;;19.20;;
77016;SDS011;65949;53.132;17.930;2023-03-01T01:13:51;53.40;;;18.50;;
77016;SDS011;65949;53.132;17.930;2023-03-01T01:16:19;47.40;;;18.00;;
77016;SDS011;65949;53.132;17.930;2023-03-01T01:18:47;48.30;;;16.50;;
77016;SDS011;65949;53.132;17.930;2023-03-01T01:21:15;42.50;;;16.20;;
77016;SDS011;65949;53.132;17.930;2023-03-01T01:23:44;49.40;;;16.90;;
77016;SDS011;65949;53.132;17.930;2023-03-01T01:26:13;44.60;;;17.00;;
77016;SDS011;65949;53.132;17.930;2023-03-01T01:28:42;38.80;;;15.40;;
77016;SDS011;65949;53.132;17.930;2023-03-01T01:31:09;37.70;;;14.70;;
77016;SDS011;65949;53.132;17.930;2023-03-01T01:33:36;40.30;;;15.00;;
77016;SDS011;65949;53.132;17.930;2023-03-01T01:36:04;43.20;;;13.90;;
77016;SDS011;65949;53.132;17.930;2023-03-01T01:38:33;55.90;;;20.20;;
77016;SDS011;65949;53.132;17.930;2023-03-01T01:41:00;58.80;;;19.50;;
77016;SDS011;65949;53.132;17.930;2023-03-01T01:43:32;52.00;;;17.60;;
77016;SDS011;65949;53.132;17.930;2023-03-01T01:49:00;57.10;;;21.70;;
77016;SDS011;65949;53.132;17.930;2023-03-01T01:51:31;70.10;;;28.30;;
77016;SDS011;65949;53.132;17.930;2023-03-01T01:54:08;74.60;;;30.90;;
77016;SDS011;65949;53.132;17.930;2023-03-01T01:56:38;66.50;;;28.20;;
77016;SDS011;65949;53.132;17.930;2023-03-01T01:59:09;50.80;;;20.30;;
77016;SDS011;65949;53.132;17.930;2023-03-01T02:01:38;46.20;;;16.60;;
77016;SDS011;65949;53.132;17.930;2023-03-01T02:04:04;43.50;;;17.20;;
77016;SDS011;65949;53.132;17.930;2023-03-01T02:06:44;42.70;;;17.10;;
77016;SDS011;65949;53.132;17.930;2023-03-01T02:09:18;46.50;;;17.70;;
77016;SDS011;65949;53.132;17.930;2023-03-01T02:11:47;38.90;;;15.20;;
77016;SDS011;65949;53.132;17.930;2023-03-01T02:14:16;41.80;;;16.40;;
77016;SDS011;65949;53.132;17.930;2023-03-01T02:16:43;41.80;;;16.00;;
77016;SDS011;65949;53.132;17.930;2023-03-01T02:19:13;43.80;;;17.00;;
77016;SDS011;65949;53.132;17.930;2023-03-01T02:22:03;37.60;;;15.60;;
77016;SDS011;65949;53.132;17.930;2023-03-01T02:24:45;39.60;;;14.80;;
77016;SDS011;65949;53.132;17.930;2023-03-01T02:27:16;41.50;;;15.70;;
77016;SDS011;65949;53.132;17.930;2023-03-01T02:29:51;39.00;;;14.60;;
77016;SDS011;65949;53.132;17.930;2023-03-01T02:32:17;34.90;;;12.30;;
77016;SDS011;65949;53.132;17.930;2023-03-01T02:34:52;36.90;;;13.90;;
77016;SDS011;65949;53.132;17.930;2023-03-01T02:37:21;37.20;;;13.50;;
77016;SDS011;65949;53.132;17.930;2023-03-01T02:39:53;34.00;;;13.60;;
77016;SDS011;65949;53.132;17.930;2023-03-01T02:42:30;45.30;;;13.60;;
77016;SDS011;65949;53.132;17.930;2023-03-01T02:45:00;39.10;;;13.70;;
77016;SDS011;65949;53.132;17.930;2023-03-01T02:47:26;51.60;;;19.40;;
77016;SDS011;65949;53.132;17.930;2023-03-01T02:49:53;72.80;;;27.80;;
77016;SDS011;65949;53.132;17.930;2023-03-01T02:52:22;90.80;;;33.20;;
77016;SDS011;65949;53.132;17.930;2023-03-01T02:57:22;65.30;;;24.00;;
77016;SDS011;65949;53.132;17.930;2023-03-01T02:59:51;60.50;;;22.50;;
77016;SDS011;65949;53.132;17.930;2023-03-01T03:02:28;49.10;;;17.90;;
77016;SDS011;65949;53.132;17.930;2023-03-01T03:05:08;48.20;;;17.50;;
77016;SDS011;65949;53.132;17.930;2023-03-01T03:07:38;47.00;;;17.10;;
77016;SDS011;65949;53.132;17.930;2023-03-01T03:10:09;45.30;;;16.00;;
77016;SDS011;65949;53.132;17.930;2023-03-01T03:12:40;41.80;;;16.30;;
77016;SDS011;65949;53.132;17.930;2023-03-01T03:15:09;36.40;;;14.60;;
77016;SDS011;65949;53.132;17.930;2023-03-01T03:17:39;45.00;;;16.10;;
77016;SDS011;65949;53.132;17.930;2023-03-01T03:20:09;48.20;;;17.10;;
77016;SDS011;65949;53.132;17.930;2023-03-01T03:22:38;48.30;;;16.50;;
77016;SDS011;65949;53.132;17.930;2023-03-01T03:25:06;45.30;;;17.30;;
77016;SDS011;65949;53.132;17.930;2023-03-01T03:27:37;40.00;;;14.10;;
77016;SDS011;65949;53.132;17.930;2023-03-01T03:30:05;46.30;;;15.00;;
77016;SDS011;65949;53.132;17.930;2023-03-01T03:32:36;42.40;;;14.90;;
77016;SDS011;65949;53.132;17.930;2023-03-01T03:35:03;33.40;;;13.20;;
77016;SDS011;65949;53.132;17.930;2023-03-01T03:37:36;37.40;;;13.90;;
77016;SDS011;65949;53.132;17.930;2023-03-01T03:40:25;28.00;;;10.60;;
77016;SDS011;65949;53.132;17.930;2023-03-01T03:42:53;26.00;;;8.70;;
77016;SDS011;65949;53.132;17.930;2023-03-01T03:45:21;20.10;;;7.40;;
77016;SDS011;65949;53.132;17.930;2023-03-01T03:47:48;23.90;;;9.60;;
77016;SDS011;65949;53.132;17.930;2023-03-01T03:50:15;44.70;;;16.30;;
77016;SDS011;65949;53.132;17.930;2023-03-01T03:52:43;43.30;;;18.10;;
77016;SDS011;65949;53.132;17.930;2023-03-01T03:55:11;36.50;;;14.40;;
77016;SDS011;65949;53.132;17.930;2023-03-01T03:57:38;34.80;;;12.20;;
77016;SDS011;65949;53.132;17.930;2023-03-01T04:00:08;27.40;;;12.10;;
77016;SDS011;65949;53.132;17.930;2023-03-01T04:02:42;31.50;;;12.80;;
77016;SDS011;65949;53.132;17.930;2023-03-01T04:05:10;27.50;;;10.80;;
77016;SDS011;65949;53.132;17.930;2023-03-01T04:07:38;27.80;;;10.70;;
77016;SDS011;65949;53.132;17.930;2023-03-01T04:10:06;30.40;;;11.40;;
77016;SDS011;65949;53.132;17.930;2023-03-01T04:12:37;29.70;;;10.60;;
77016;SDS011;65949;53.132;17.930;2023-03-01T04:15:04;36.20;;;14.10;;
77016;SDS011;65949;53.132;17.930;2023-03-01T04:17:43;32.90;;;11.30;;
77016;SDS011;65949;53.132;17.930;2023-03-01T04:20:12;37.40;;;14.40;;
77016;SDS011;65949;53.132;17.930;2023-03-01T04:22:40;41.20;;;17.30;;
77016;SDS011;65949;53.132;17.930;2023-03-01T04:25:07;38.20;;;16.70;;
77016;SDS011;65949;53.132;17.930;2023-03-01T04:27:34;37.00;;;15.20;;
77016;SDS011;65949;53.132;17.930;2023-03-01T04:30:03;35.60;;;14.30;;
77016;SDS011;65949;53.132;17.930;2023-03-01T04:32:30;33.10;;;11.70;;
77016;SDS011;65949;53.132;17.930;2023-03-01T04:34:56;36.60;;;14.80;;
77016;SDS011;65949;53.132;17.930;2023-03-01T04:37:23;38.80;;;15.40;;
77016;SDS011;65949;53.132;17.930;2023-03-01T04:39:53;49.50;;;17.80;;
77016;SDS011;65949;53.132;17.930;2023-03-01T04:42:20;74.40;;;26.30;;
77016;SDS011;65949;53.132;17.930;2023-03-01T04:44:46;65.30;;;26.40;;
77016;SDS011;65949;53.132;17.930;2023-03-01T04:47:13;45.60;;;19.50;;
77016;SDS011;65949;53.132;17.930;2023-03-01T04:49:40;48.60;;;19.00;;
77016;SDS011;65949;53.132;17.930;2023-03-01T04:52:06;42.30;;;17.40;;
77016;SDS011;65949;53.132;17.930;2023-03-01T04:54:33;45.40;;;17.50;;
77016;SDS011;65949;53.132;17.930;2023-03-01T04:57:01;46.10;;;17.70;;
77016;SDS011;65949;53.132;17.930;2023-03-01T04:59:29;49.30;;;17.40;;
77016;SDS011;65949;53.132;17.930;2023-03-01T05:01:55;46.60;;;18.10;;
77016;SDS011;65949;53.132;17.930;2023-03-01T05:04:25;48.40;;;18.70;;
77016;SDS011;65949;53.132;17.930;2023-03-01T05:06:52;44.70;;;16.10;;
77016;SDS011;65949;53.132;17.930;2023-03-01T05:09:19;43.70;;;16.20;;
77016;SDS011;65949;53.132;17.930;2023-03-01T05:11:46;44.30;;;16.50;;
77016;SDS011;65949;53.132;17.930;2023-03-01T05:14:13;48.00;;;18.80;;
77016;SDS011;65949;53.132;17.930;2023-03-01T05:16:39;47.00;;;17.10;;
77016;SDS011;65949;53.132;17.930;2023-03-01T05:19:06;41.00;;;16.20;;
77016;SDS011;65949;53.132;17.930;2023-03-01T05:21:37;39.90;;;14.30;;
77016;SDS011;65949;53.132;17.930;2023-03-01T05:24:27;36.40;;;14.30;;
77016;SDS011;65949;53.132;17.930;2023-03-01T05:26:55;39.90;;;16.10;;
77016;SDS011;65949;53.132;17.930;2023-03-01T05:29:22;49.50;;;21.20;;
77016;SDS011;65949;53.132;17.930;2023-03-01T05:31:57;63.80;;;27.70;;
77016;SDS011;65949;53.132;17.930;2023-03-01T05:34:31;77.80;;;32.20;;
77016;SDS011;65949;53.132;17.930;2023-03-01T05:36:59;69.80;;;29.20;;
77016;SDS011;65949;53.132;17.930;2023-03-01T05:39:26;53.50;;;22.40;;
77016;SDS011;65949;53.132;17.930;2023-03-01T05:41:54;50.00;;;20.30;;
77016;SDS011;65949;53.132;17.930;2023-03-01T05:44:23;55.50;;;21.00;;
77016;SDS011;65949;53.132;17.930;2023-03-01T05:46:50;61.70;;;22.40;;
77016;SDS011;65949;53.132;17.930;2023-03-01T05:49:18;70.90;;;23.90;;
77016;SDS011;65949;53.132;17.930;2023-03-01T05:51:49;67.90;;;23.10;;
77016;SDS011;65949;53.132;17.930;2023-03-01T05:54:17;68.80;;;24.40;;
77016;SDS011;65949;53.132;17.930;2023-03-01T05:56:44;72.30;;;26.40;;
77016;SDS011;65949;53.132;17.930;2023-03-01T05:59:11;71.80;;;27.10;;
77016;SDS011;65949;53.132;17.930;2023-03-01T06:01:38;66.40;;;27.10;;
77016;SDS011;65949;53.132;17.930;2023-03-01T06:04:05;66.80;;;26.90;;
77016;SDS011;65949;53.132;17.930;2023-03-01T06:06:35;59.70;;;21.00;;
77016;SDS011;65949;53.132;17.930;2023-03-01T06:09:06;56.20;;;23.20;;
77016;SDS011;65949;53.132;17.930;2023-03-01T06:11:35;62.60;;;25.30;;
77016;SDS011;65949;53.132;17.930;2023-03-01T06:14:03;50.90;;;22.50;;
77016;SDS011;65949;53.132;17.930;2023-03-01T06:16:30;98.00;;;40.10;;
77016;SDS011;65949;53.132;17.930;2023-03-01T06:18:57;81.50;;;33.60;;
77016;SDS011;65949;53.132;17.930;2023-03-01T06:21:23;75.20;;;31.10;;
77016;SDS011;65949;53.132;17.930;2023-03-01T06:23:50;61.20;;;24.30;;
77016;SDS011;65949;53.132;17.930;2023-03-01T06:26:18;62.00;;;22.30;;
77016;SDS011;65949;53.132;17.930;2023-03-01T06:28:44;56.90;;;20.60;;
77016;SDS011;65949;53.132;17.930;2023-03-01T06:31:12;52.40;;;20.90;;
77016;SDS011;65949;53.132;17.930;2023-03-01T06:33:39;45.30;;;18.40;;
77016;SDS011;65949;53.132;17.930;2023-03-01T06:36:05;55.30;;;21.30;;
77016;SDS011;65949;53.132;17.930;2023-03-01T06:38:33;56.20;;;22.90;;
77016;SDS011;65949;53.132;17.930;2023-03-01T06:40:59;54.00;;;21.10;;
77016;SDS011;65949;53.132;17.930;2023-03-01T06:43:27;58.40;;;22.00;;
77016;SDS011;65949;53.132;17.930;2023-03-01T06:45:54;48.80;;;18.80;;
77016;SDS011;65949;53.132;17.930;2023-03-01T06:48:20;60.90;;;22.80;;
77016;SDS011;65949;53.132;17.930;2023-03-01T06:50:47;39.60;;;16.00;;
77016;SDS011;65949;53.132;17.930;2023-03-01T06:53:13;48.30;;;18.40;;
77016;SDS011;65949;53.132;17.930;2023-03-01T06:55:40;76.50;;;27.10;;
77016;SDS011;65949;53.132;17.930;2023-03-01T06:58:08;64.80;;;27.10;;
77016;SDS011;65949;53.132;17.930;2023-03-01T07:00:35;52.60;;;20.60;;
77016;SDS011;65949;53.132;17.930;2023-03-01T07:03:02;58.20;;;23.10;;
77016;SDS011;65949;53.132;17.930;2023-03-01T07:05:29;54.00;;;21.50;;
77016;SDS011;65949;53.132;17.930;2023-03-01T07:07:56;54.80;;;19.70;;
77016;SDS011;65949;53.132;17.930;2023-03-01T07:10:23;50.90;;;20.10;;
77016;SDS011;65949;53.132;17.930;2023-03-01T07:12:49;45.40;;;16.80;;
77016;SDS011;65949;53.132;17.930;2023-03-01T07:15:16;50.40;;;17.60;;
77016;SDS011;65949;53.132;17.930;2023-03-01T07:17:43;43.40;;;17.40;;
77016;SDS011;65949;53.132;17.930;2023-03-01T07:20:11;44.20;;;17.60;;
77016;SDS011;65949;53.132;17.930;2023-03-01T07:22:39;42.00;;;15.00;;
77016;SDS011;65949;53.132;17.930;2023-03-01T07:25:08;47.30;;;18.50;;
77016;SDS011;65949;53.132;17.930;2023-03-01T07:27:35;38.60;;;13.90;;
77016;SDS011;65949;53.132;17.930;2023-03-01T07:30:03;27.00;;;11.10;;
77016;SDS011;65949;53.132;17.930;2023-03-01T07:32:30;22.50;;;9.20;;
77016;SDS011;65949;53.132;17.930;2023-03-01T07:34:56;26.70;;;10.20;;
77016;SDS011;65949;53.132;17.930;2023-03-01T07:37:23;32.50;;;12.00;;
77016;SDS011;65949;53.132;17.930;2023-03-01T07:39:50;30.10;;;11.60;;
77016;SDS011;65949;53.132;17.930;2023-03-01T07:42:16;35.00;;;12.50;;
77016;SDS011;65949;53.132;17.930;2023-03-01T07:44:43;32.20;;;13.30;;
77016;SDS011;65949;53.132;17.930;2023-03-01T07:47:09;38.00;;;14.70;;
77016;SDS011;65949;53.132;17.930;2023-03-01T07:49:36;30.80;;;11.80;;
77016;SDS011;65949;53.132;17.930;2023-03-01T07:52:03;23.80;;;9.70;;
77016;SDS011;65949;53.132;17.930;2023-03-01T07:54:29;21.40;;;8.20;;
77016;SDS011;65949;53.132;17.930;2023-03-01T07:56:56;16.50;;;7.00;;
77016;SDS011;65949;53.132;17.930;2023-03-01T07:59:23;19.20;;;6.90;;
77016;SDS011;65949;53.132;17.930;2023-03-01T08:01:56;23.50;;;8.00;;
77016;SDS011;65949;53.132;17.930;2023-03-01T08:04:23;20.10;;;7.60;;
77016;SDS011;65949;53.132;17.930;2023-03-01T08:06:51;21.20;;;9.10;;
77016;SDS011;65949;53.132;17.930;2023-03-01T08:09:18;24.20;;;8.70;;
77016;SDS011;65949;53.132;17.930;2023-03-01T08:11:45;25.80;;;10.60;;
77016;SDS011;65949;53.132;17.930;2023-03-01T08:14:12;21.70;;;8.30;;
77016;SDS011;65949;53.132;17.930;2023-03-01T08:16:38;24.70;;;9.00;;
77016;SDS011;65949;53.132;17.930;2023-03-01T08:19:06;19.40;;;8.10;;
77016;SDS011;65949;53.132;17.930;2023-03-01T08:21:34;26.00;;;8.80;;
77016;SDS011;65949;53.132;17.930;2023-03-01T08:24:01;30.00;;;12.10;;
77016;SDS011;65949;53.132;17.930;2023-03-01T08:26:32;21.10;;;8.30;;
77016;SDS011;65949;53.132;17.930;2023-03-01T08:29:00;25.30;;;8.70;;
77016;SDS011;65949;53.132;17.930;2023-03-01T08:31:37;16.50;;;6.60;;
77016;SDS011;65949;53.132;17.930;2023-03-01T08:34:07;23.30;;;8.00;;
77016;SDS011;65949;53.132;17.930;2023-03-01T08:36:36;23.10;;;9.50;;
77016;SDS011;65949;53.132;17.930;2023-03-01T08:39:06;24.40;;;9.50;;
77016;SDS011;65949;53.132;17.930;2023-03-01T08:41:33;23.30;;;10.00;;
77016;SDS011;65949;53.132;17.930;2023-03-01T08:44:00;24.50;;;9.40;;
77016;SDS011;65949;53.132;17.930;2023-03-01T08:46:28;27.50;;;11.00;;
77016;SDS011;65949;53.132;17.930;2023-03-01T08:48:59;29.10;;;12.30;;
77016;SDS011;65949;53.132;17.930;2023-03-01T08:51:27;24.90;;;10.60;;
77016;SDS011;65949;53.132;17.930;2023-03-01T08:53:55;22.20;;;7.00;;
77016;SDS011;65949;53.132;17.930;2023-03-01T08:56:22;37.20;;;13.50;;
77016;SDS011;65949;53.132;17.930;2023-03-01T08:58:48;39.90;;;13.40;;
77016;SDS011;65949;53.132;17.930;2023-03-01T09:01:17;36.30;;;12.00;;
77016;SDS011;65949;53.132;17.930;2023-03-01T09:03:45;29.20;;;10.70;;
77016;SDS011;65949;53.132;17.930;2023-03-01T09:06:12;29.30;;;11.00;;
77016;SDS011;65949;53.132;17.930;2023-03-01T09:08:41;37.30;;;12.50;;
77016;SDS011;65949;53.132;17.930;2023-03-01T09:11:11;28.00;;;10.60;;
77016;SDS011;65949;53.132;17.930;2023-03-01T09:13:39;25.50;;;9.90;;
77016;SDS011;65949;53.132;17.930;2023-03-01T09:16:06;20.20;;;8.60;;
77016;SDS011;65949;53.132;17.930;2023-03-01T09:18:34;26.20;;;10.90;;
77016;SDS011;65949;53.132;17.930;2023-03-01T09:21:09;29.00;;;11.60;;
77016;SDS011;65949;53.132;17.930;2023-03-01T09:23:41;22.60;;;8.90;;
77016;SDS011;65949;53.132;17.930;2023-03-01T09:26:17;22.60;;;9.40;;
77016;SDS011;65949;53.132;17.930;2023-03-01T09:28:52;19.00;;;8.80;;
77016;SDS011;65949;53.132;17.930;2023-03-01T09:31:21;19.90;;;8.50;;
77016;SDS011;65949;53.132;17.930;2023-03-01T09:33:49;21.80;;;8.70;;
77016;SDS011;65949;53.132;17.930;2023-03-01T09:36:19;24.70;;;10.40;;
77016;SDS011;65949;53.132;17.930;2023-03-01T09:38:47;23.20;;;8.80;;
77016;SDS011;65949;53.132;17.930;2023-03-01T09:41:22;19.80;;;8.80;;
77016;SDS011;65949;53.132;17.930;2023-03-01T09:43:54;21.20;;;9.10;;
77016;SDS011;65949;53.132;17.930;2023-03-01T09:46:25;23.70;;;10.40;;
77016;SDS011;65949;53.132;17.930;2023-03-01T09:48:57;24.60;;;10.70;;
77016;SDS011;65949;53.132;17.930;2023-03-01T09:55:46;21.50;;;8.30;;
77016;SDS011;65949;53.132;17.930;2023-03-01T10:00:54;22.80;;;8.70;;
77016;SDS011;65949;53.132;17.930;2023-03-01T10:03:28;21.30;;;8.90;;
77016;SDS011;65949;53.132;17.930;2023-03-01T10:09:05;19.50;;;8.60;;
77016;SDS011;65949;53.132;17.930;2023-03-01T10:11:38;21.80;;;8.00;;
77016;SDS011;65949;53.132;17.930;2023-03-01T10:14:16;24.00;;;8.60;;
77016;SDS011;65949;53.132;17.930;2023-03-01T10:17:07;21.90;;;8.80;;
77016;SDS011;65949;53.132;17.930;2023-03-01T10:19:39;20.50;;;8.10;;
77016;SDS011;65949;53.132;17.930;2023-03-01T10:22:29;19.80;;;8.60;;
77016;SDS011;65949;53.132;17.930;2023-03-01T10:24:58;22.60;;;9.20;;
77016;SDS011;65949;53.132;17.930;2023-03-01T10:30:38;21.00;;;9.60;;
77016;SDS011;65949;53.132;17.930;2023-03-01T10:33:14;21.40;;;8.40;;
77016;SDS011;65949;53.132;17.930;2023-03-01T10:35:42;22.20;;;8.30;;
77016;SDS011;65949;53.132;17.930;2023-03-01T10:38:13;17.50;;;7.20;;
77016;SDS011;65949;53.132;17.930;2023-03-01T10:40:57;22.90;;;9.70;;
77016;SDS011;65949;53.132;17.930;2023-03-01T10:44:10;18.90;;;7.90;;
77016;SDS011;65949;53.132;17.930;2023-03-01T10:46:23;24.00;;;9.50;;
77016;SDS011;65949;53.132;17.930;2023-03-01T10:54:51;22.80;;;8.70;;
77016;SDS011;65949;53.132;17.930;2023-03-01T10:57:31;24.40;;;9.50;;
77016;SDS011;65949;53.132;17.930;2023-03-01T11:00:14;19.70;;;9.00;;
77016;SDS011;65949;53.132;17.930;2023-03-01T11:03:19;18.20;;;8.20;;
77016;SDS011;65949;53.132;17.930;2023-03-01T11:05:57;25.20;;;9.70;;
77016;SDS011;65949;53.132;17.930;2023-03-01T11:08:37;22.30;;;10.90;;
77016;SDS011;65949;53.132;17.930;2023-03-01T11:11:19;15.00;;;6.80;;
77016;SDS011;65949;53.132;17.930;2023-03-01T11:16:35;23.00;;;9.40;;
77016;SDS011;65949;53.132;17.930;2023-03-01T11:21:38;19.50;;;7.60;;
77016;SDS011;65949;53.132;17.930;2023-03-01T11:24:10;18.50;;;7.50;;
77016;SDS011;65949;53.132;17.930;2023-03-01T11:26:39;17.30;;;7.60;;
77016;SDS011;65949;53.132;17.930;2023-03-01T11:29:17;21.90;;;9.00;;
77016;SDS011;65949;53.132;17.930;2023-03-01T11:31:54;17.90;;;6.40;;
77016;SDS011;65949;53.132;17.930;2023-03-01T11:34:40;16.50;;;7.00;;
77016;SDS011;65949;53.132;17.930;2023-03-01T11:37:16;22.20;;;7.00;;
77016;SDS011;65949;53.132;17.930;2023-03-01T11:39:58;16.00;;;7.10;;
77016;SDS011;65949;53.132;17.930;2023-03-01T11:45:26;17.10;;;6.60;;
77016;SDS011;65949;53.132;17.930;2023-03-01T11:50:51;13.20;;;6.40;;
77016;SDS011;65949;53.132;17.930;2023-03-01T11:53:28;14.90;;;6.20;;
77016;SDS011;65949;53.132;17.930;2023-03-01T11:56:01;14.40;;;5.70;;
77016;SDS011;65949;53.132;17.930;2023-03-01T12:01:48;18.70;;;7.10;;
77016;SDS011;65949;53.132;17.930;2023-03-01T12:07:23;13.40;;;5.50;;
77016;SDS011;65949;53.132;17.930;2023-03-01T12:10:20;16.70;;;6.20;;
77016;SDS011;65949;53.132;17.930;2023-03-01T12:13:05;13.50;;;5.40;;
77016;SDS011;65949;53.132;17.930;2023-03-01T12:18:51;20.10;;;7.20;;
77016;SDS011;65949;53.132;17.930;2023-03-01T12:24:26;15.30;;;6.60;;
77016;SDS011;65949;53.132;17.930;2023-03-01T12:32:47;17.20;;;7.60;;
77016;SDS011;65949;53.132;17.930;2023-03-01T12:49:12;20.50;;;9.20;;
77016;SDS011;65949;53.132;17.930;2023-03-01T12:51:43;21.90;;;11.30;;
77016;SDS011;65949;53.132;17.930;2023-03-01T12:54:31;22.30;;;9.70;;
77016;SDS011;65949;53.132;17.930;2023-03-01T13:02:49;20.70;;;9.10;;
77016;SDS011;65949;53.132;17.930;2023-03-01T13:10:39;50.60;;;26.30;;
77016;SDS011;65949;53.132;17.930;2023-03-01T13:13:22;21.80;;;7.70;;
77016;SDS011;65949;53.132;17.930;2023-03-01T13:15:53;27.70;;;13.00;;
77016;SDS011;65949;53.132;17.930;2023-03-01T13:20:52;22.10;;;9.80;;
77016;SDS011;65949;53.132;17.930;2023-03-01T13:33:42;19.60;;;9.30;;
77016;SDS011;65949;53.132;17.930;2023-03-01T13:36:11;17.80;;;6.50;;
77016;SDS011;65949;53.132;17.930;2023-03-01T13:39:25;18.90;;;7.80;;
77016;SDS011;65949;53.132;17.930;2023-03-01T13:41:59;16.90;;;7.40;;
77016;SDS011;65949;53.132;17.930;2023-03-01T13:44:28;21.30;;;10.50;;
77016;SDS011;65949;53.132;17.930;2023-03-01T13:47:20;23.70;;;12.40;;
77016;SDS011;65949;53.132;17.930;2023-03-01T13:49:48;17.90;;;7.80;;
77016;SDS011;65949;53.132;17.930;2023-03-01T13:57:41;16.20;;;6.70;;
77016;SDS011;65949;53.132;17.930;2023-03-01T14:05:32;93.30;;;50.70;;
77016;SDS011;65949;53.132;17.930;2023-03-01T14:07:59;20.30;;;8.30;;
77016;SDS011;65949;53.132;17.930;2023-03-01T14:10:28;21.20;;;8.90;;
77016;SDS011;65949;53.132;17.930;2023-03-01T14:15:49;19.90;;;8.00;;
77016;SDS011;65949;53.132;17.930;2023-03-01T14:18:36;17.70;;;8.00;;
77016;SDS011;65949;53.132;17.930;2023-03-01T14:21:14;20.80;;;7.70;;
77016;SDS011;65949;53.132;17.930;2023-03-01T14:23:42;17.90;;;7.60;;
77016;SDS011;65949;53.132;17.930;2023-03-01T14:26:09;18.60;;;7.50;;
77016;SDS011;65949;53.132;17.930;2023-03-01T14:28:38;34.20;;;23.40;;
77016;SDS011;65949;53.132;17.930;2023-03-01T14:34:03;18.90;;;7.80;;
77016;SDS011;65949;53.132;17.930;2023-03-01T14:36:31;16.80;;;6.20;;
77016;SDS011;65949;53.132;17.930;2023-03-01T14:39:00;18.40;;;8.80;;
77016;SDS011;65949;53.132;17.930;2023-03-01T14:41:34;18.90;;;7.70;;
77016;SDS011;65949;53.132;17.930;2023-03-01T14:44:05;15.90;;;6.90;;
77016;SDS011;65949;53.132;17.930;2023-03-01T14:46:41;15.20;;;6.20;;
77016;SDS011;65949;53.132;17.930;2023-03-01T14:51:42;54.80;;;15.80;;
77016;SDS011;65949;53.132;17.930;2023-03-01T14:54:20;19.00;;;7.80;;
77016;SDS011;65949;53.132;17.930;2023-03-01T14:56:52;23.50;;;7.60;;
77016;SDS011;65949;53.132;17.930;2023-03-01T14:59:23;20.50;;;7.70;;
77016;SDS011;65949;53.132;17.930;2023-03-01T15:01:51;26.10;;;8.80;;
77016;SDS011;65949;53.132;17.930;2023-03-01T15:04:22;18.00;;;7.40;;
77016;SDS011;65949;53.132;17.930;2023-03-01T15:06:50;20.50;;;6.80;;
77016;SDS011;65949;53.132;17.930;2023-03-01T15:09:18;19.10;;;6.60;;
77016;SDS011;65949;53.132;17.930;2023-03-01T15:11:45;17.10;;;7.30;;
77016;SDS011;65949;53.132;17.930;2023-03-01T15:17:19;24.00;;;8.70;;
77016;SDS011;65949;53.132;17.930;2023-03-01T15:19:57;20.50;;;8.00;;
77016;SDS011;65949;53.132;17.930;2023-03-01T15:22:25;16.20;;;7.00;;
77016;SDS011;65949;53.132;17.930;2023-03-01T15:24:53;19.50;;;7.90;;
77016;SDS011;65949;53.132;17.930;2023-03-01T15:27:21;22.00;;;8.40;;
77016;SDS011;65949;53.132;17.930;2023-03-01T15:29:54;27.70;;;9.60;;
77016;SDS011;65949;53.132;17.930;2023-03-01T15:32:35;35.70;;;12.40;;
77016;SDS011;65949;53.132;17.930;2023-03-01T15:35:55;37.50;;;11.20;;
77016;SDS011;65949;53.132;17.930;2023-03-01T15:38:25;36.90;;;11.20;;
77016;SDS011;65949;53.132;17.930;2023-03-01T15:40:57;43.80;;;14.50;;
77016;SDS011;65949;53.132;17.930;2023-03-01T15:43:43;257.70;;;95.00;;
77016;SDS011;65949;53.132;17.930;2023-03-01T15:48:54;110.90;;;38.70;;
77016;SDS011;65949;53.132;17.930;2023-03-01T15:51:30;95.30;;;36.20;;
77016;SDS011;65949;53.132;17.930;2023-03-01T15:54:00;134.10;;;55.50;;
77016;SDS011;65949;53.132;17.930;2023-03-01T15:56:30;47.50;;;20.60;;
77016;SDS011;65949;53.132;17.930;2023-03-01T15:58:57;43.50;;;19.00;;
77016;SDS011;65949;53.132;17.930;2023-03-01T16:01:25;46.80;;;24.40;;
77016;SDS011;65949;53.132;17.930;2023-03-01T16:03:52;56.60;;;25.30;;
77016;SDS011;65949;53.132;17.930;2023-03-01T16:06:20;68.60;;;28.20;;
77016;SDS011;65949;53.132;17.930;2023-03-01T16:08:47;77.30;;;30.00;;
77016;SDS011;65949;53.132;17.930;2023-03-01T16:11:15;79.10;;;32.70;;
77016;SDS011;65949;53.132;17.930;2023-03-01T16:13:44;72.80;;;29.30;;
77016;SDS011;65949;53.132;17.930;2023-03-01T16:16:12;68.80;;;28.50;;
77016;SDS011;65949;53.132;17.930;2023-03-01T16:18:45;53.40;;;21.90;;
77016;SDS011;65949;53.132;17.930;2023-03-01T16:21:20;48.20;;;18.90;;
77016;SDS011;65949;53.132;17.930;2023-03-01T16:23:49;46.40;;;17.30;;
77016;SDS011;65949;53.132;17.930;2023-03-01T16:26:17;61.00;;;23.10;;
77016;SDS011;65949;53.132;17.930;2023-03-01T16:28:45;82.60;;;29.90;;